Terminal Aerodrome Forecast
Issued by NWS Sterling, VA

Current Version | Previous Version | Text Only | Print | Product List | Glossary On
Versions: 1 2 3 4 5 6 7 8 9 10 11 12 13 14 15 16 17 18 19 20 21 22 23 24 25 26 27 28 29 30
418
FTUS41 KLWX 221741
TAFIAD
TAF
KIAD 221741Z 2218/2324 36006KT 5SM -RADZ OVC025
     FM222100 03007KT 5SM -RADZ OVC008
     FM230600 06005KT 2SM -RADZ OVC003
     FM231500 12005KT 2SM -RADZ OVC008=

USA.gov is the U.S. government's official web portal to all federal, state and local government web resources and services.